createdAt,value
2018-06-30T00:01:18.494Z,3.43
2018-06-30T00:06:22.544Z,3.43
2018-06-30T00:11:25.624Z,4.00
2018-06-30T00:16:28.682Z,3.80
2018-06-30T00:21:31.769Z,3.43
2018-06-30T00:26:34.812Z,3.30
2018-06-30T00:31:37.824Z,3.13
2018-06-30T00:36:40.809Z,4.00
2018-06-30T00:41:43.813Z,3.00
2018-06-30T00:46:46.874Z,3.10
2018-06-30T00:51:49.873Z,3.30
2018-06-30T00:56:52.945Z,2.93
2018-06-30T01:01:56.302Z,2.87
2018-06-30T01:06:59.789Z,3.27
2018-06-30T01:12:03.181Z,3.10
2018-06-30T01:17:06.545Z,2.97
2018-06-30T01:22:10.014Z,2.90
2018-06-30T01:27:13.005Z,2.90
2018-06-30T01:32:16.026Z,2.43
2018-06-30T01:37:19.833Z,2.50
2018-06-30T01:42:22.866Z,1.90
2018-06-30T01:47:25.909Z,1.80
2018-06-30T01:52:28.920Z,2.20
2018-06-30T01:57:31.900Z,2.07
2018-06-30T02:02:34.913Z,1.90
2018-06-30T02:07:37.904Z,2.40
2018-06-30T02:12:40.945Z,2.50
2018-06-30T02:17:43.991Z,2.10
2018-06-30T02:22:46.981Z,2.30
2018-06-30T02:27:50.019Z,2.70
2018-06-30T02:32:53.061Z,2.23
2018-06-30T02:37:56.165Z,2.60
2018-06-30T02:42:59.291Z,1.90
2018-06-30T02:48:02.297Z,2.27
2018-06-30T02:53:05.427Z,2.17
2018-06-30T02:58:08.487Z,2.10
2018-06-30T03:03:11.502Z,2.00
2018-06-30T03:08:14.652Z,2.50
2018-06-30T03:13:17.761Z,1.80
2018-06-30T03:18:20.849Z,2.10
2018-06-30T03:23:23.833Z,1.93
2018-06-30T03:28:26.834Z,1.87
2018-06-30T03:33:29.841Z,2.00
2018-06-30T03:38:32.864Z,1.83
2018-06-30T03:43:35.856Z,1.57
2018-06-30T03:48:38.855Z,1.50
2018-06-30T03:53:41.953Z,1.53
2018-06-30T03:58:44.949Z,1.50
2018-06-30T04:03:48.007Z,1.30
2018-06-30T04:08:50.998Z,1.30
2018-06-30T04:13:54.058Z,1.60
2018-06-30T04:19:01.617Z,1.40
2018-06-30T04:24:04.633Z,1.20
2018-06-30T04:29:07.653Z,1.20
2018-06-30T04:34:10.657Z,1.47
2018-06-30T04:39:13.686Z,1.77
2018-06-30T04:44:16.694Z,1.50
2018-06-30T04:49:19.681Z,1.20
2018-06-30T04:54:22.674Z,1.20
2018-06-30T04:59:25.761Z,1.27
2018-06-30T05:04:29.485Z,1.20
2018-06-30T05:09:32.493Z,1.40
2018-06-30T05:14:35.532Z,1.03
2018-06-30T05:19:39.596Z,0.87
2018-06-30T05:24:42.801Z,0.83
2018-06-30T05:29:45.810Z,0.97
2018-06-30T05:34:50.120Z,0.90
2018-06-30T05:39:54.715Z,0.80
2018-06-30T05:45:00.529Z,0.90
2018-06-30T05:50:03.833Z,0.80
2018-06-30T05:55:06.901Z,1.00
2018-06-30T06:00:10.106Z,0.70
2018-06-30T06:05:13.149Z,1.17
2018-06-30T06:10:16.215Z,0.83
2018-06-30T06:15:19.245Z,0.80
2018-06-30T06:20:22.313Z,0.70
2018-06-30T06:25:25.313Z,0.80
2018-06-30T06:30:28.381Z,0.77
2018-06-30T06:35:31.410Z,0.60
2018-06-30T06:40:34.508Z,1.00
2018-06-30T06:45:37.542Z,1.10
2018-06-30T06:50:40.553Z,0.77
2018-06-30T06:55:43.566Z,1.27
2018-06-30T07:00:46.614Z,0.80
2018-06-30T07:05:49.654Z,0.93
2018-06-30T07:10:52.647Z,0.67
2018-06-30T07:15:55.701Z,0.70
2018-06-30T07:20:58.693Z,0.70
2018-06-30T07:26:01.736Z,1.40
2018-06-30T07:31:04.743Z,0.73
2018-06-30T07:36:07.725Z,0.70
2018-06-30T07:41:10.736Z,0.80
2018-06-30T07:46:13.737Z,0.70
2018-06-30T07:51:16.745Z,0.90
2018-06-30T07:56:19.862Z,0.70
2018-06-30T08:01:23.006Z,0.67
2018-06-30T08:06:26.055Z,0.80
2018-06-30T08:11:29.037Z,0.60
2018-06-30T08:16:32.035Z,0.57
2018-06-30T08:21:35.069Z,0.70
2018-06-30T08:26:38.143Z,0.80
2018-06-30T08:31:41.149Z,0.70
2018-06-30T08:36:44.217Z,0.77
2018-06-30T08:41:47.294Z,0.60
2018-06-30T08:46:50.416Z,0.50
2018-06-30T08:51:53.445Z,0.50
2018-06-30T08:56:56.516Z,0.60
2018-06-30T09:01:59.513Z,0.53
2018-06-30T09:07:02.613Z,0.60
2018-06-30T09:12:06.242Z,0.60
2018-06-30T09:17:09.251Z,0.60
2018-06-30T09:22:12.230Z,0.60
2018-06-30T09:27:15.256Z,0.70
2018-06-30T09:32:18.238Z,0.80
2018-06-30T09:37:21.261Z,0.60
2018-06-30T09:42:24.265Z,0.60
2018-06-30T09:47:27.362Z,0.60
2018-06-30T09:52:30.345Z,0.50
2018-06-30T09:57:33.348Z,0.70
2018-06-30T10:02:36.484Z,0.60
2018-06-30T10:07:39.477Z,0.80
2018-06-30T10:12:42.481Z,0.60
2018-06-30T10:17:45.793Z,0.70
2018-06-30T10:22:48.805Z,0.70
2018-06-30T10:27:51.802Z,0.77
2018-06-30T10:32:54.844Z,0.60
2018-06-30T10:37:57.865Z,0.90
2018-06-30T10:43:00.841Z,0.70
2018-06-30T10:48:13.983Z,0.77
2018-06-30T10:53:17.361Z,0.77
2018-06-30T10:58:20.649Z,0.70
2018-06-30T11:03:23.673Z,1.10
2018-06-30T11:08:26.773Z,0.70
2018-06-30T11:13:29.752Z,0.73
2018-06-30T11:18:32.967Z,0.70
2018-06-30T11:23:36.037Z,0.60
2018-06-30T11:28:39.015Z,0.70
2018-06-30T11:33:41.990Z,0.70
2018-06-30T11:38:44.989Z,0.87
2018-06-30T11:43:48.053Z,0.67
2018-06-30T11:48:51.092Z,0.70
2018-06-30T11:53:54.153Z,0.60
2018-06-30T11:58:57.186Z,0.60
2018-06-30T12:04:00.355Z,0.50
2018-06-30T12:09:06.800Z,0.60
2018-06-30T12:14:09.910Z,0.70
2018-06-30T12:19:12.905Z,1.03
2018-06-30T12:24:16.036Z,0.60
2018-06-30T12:29:19.097Z,0.70
2018-06-30T12:34:23.448Z,0.60
2018-06-30T12:39:26.541Z,0.80
2018-06-30T12:44:29.561Z,0.57
2018-06-30T12:49:32.545Z,0.70
2018-06-30T12:54:35.751Z,0.70
2018-06-30T12:59:38.609Z,0.60
2018-06-30T13:04:41.656Z,0.77
2018-06-30T13:09:45.119Z,0.60
2018-06-30T13:14:48.221Z,0.63
2018-06-30T13:19:51.292Z,0.50
2018-06-30T13:24:54.737Z,0.50
2018-06-30T13:29:57.749Z,0.60
2018-06-30T13:35:00.727Z,0.50
2018-06-30T13:40:03.958Z,0.50
2018-06-30T13:45:08.491Z,2.70
2018-06-30T13:50:11.633Z,0.60
2018-06-30T13:55:14.682Z,0.80
2018-06-30T14:00:17.770Z,0.77
2018-06-30T14:05:20.790Z,0.60
2018-06-30T14:10:23.822Z,0.70
2018-06-30T14:15:26.878Z,0.63
2018-06-30T14:20:29.993Z,0.60
2018-06-30T14:25:33.014Z,0.63
2018-06-30T14:30:36.091Z,0.80
2018-06-30T14:35:39.167Z,0.90
2018-06-30T14:40:42.171Z,0.90
2018-06-30T14:45:45.425Z,0.80
2018-06-30T14:50:48.445Z,0.70
2018-06-30T14:55:51.639Z,0.77
2018-06-30T15:00:54.622Z,0.70
2018-06-30T15:05:57.682Z,0.60
2018-06-30T15:11:00.699Z,0.60
2018-06-30T15:16:03.951Z,0.60
2018-06-30T15:21:07.195Z,0.60
2018-06-30T15:26:10.301Z,0.50
2018-06-30T15:31:13.317Z,0.60
2018-06-30T15:36:16.339Z,0.70
2018-06-30T15:41:19.482Z,0.60
2018-06-30T15:46:22.567Z,0.60
2018-06-30T15:51:25.585Z,0.50
2018-06-30T15:56:28.606Z,0.90
2018-06-30T16:01:31.705Z,0.50
2018-06-30T16:06:34.732Z,0.60
2018-06-30T16:11:37.781Z,0.60
2018-06-30T16:16:40.798Z,0.67
2018-06-30T16:21:43.806Z,0.70
2018-06-30T16:26:46.834Z,0.60
2018-06-30T16:31:49.845Z,0.70
2018-06-30T16:36:52.837Z,0.80
2018-06-30T16:41:55.870Z,0.70
2018-06-30T16:46:58.950Z,0.60
2018-06-30T16:52:02.017Z,0.60
2018-06-30T16:57:05.246Z,0.80
2018-06-30T17:02:08.257Z,0.60
2018-06-30T17:07:11.295Z,0.60
2018-06-30T17:12:14.328Z,0.60
2018-06-30T17:17:17.383Z,0.50
2018-06-30T17:22:20.397Z,0.83
2018-06-30T17:27:23.397Z,0.70
2018-06-30T17:32:26.420Z,0.60
2018-06-30T17:37:29.424Z,0.50
2018-06-30T17:42:32.449Z,0.60
2018-06-30T17:47:35.474Z,0.87
2018-06-30T17:52:38.577Z,0.70
2018-06-30T17:57:41.673Z,1.17
2018-06-30T18:02:44.706Z,0.60
2018-06-30T18:07:47.774Z,0.70
2018-06-30T18:12:53.128Z,0.67
2018-06-30T18:17:58.044Z,0.80
2018-06-30T18:23:01.398Z,0.73
2018-06-30T18:28:04.620Z,1.13
2018-06-30T18:33:07.709Z,1.00
2018-06-30T18:38:10.906Z,1.00
2018-06-30T18:43:13.909Z,1.00
2018-06-30T18:48:16.989Z,1.30
2018-06-30T18:53:20.157Z,0.70
2018-06-30T18:58:23.483Z,0.80
2018-06-30T19:03:26.489Z,0.90
2018-06-30T19:08:29.561Z,0.70
2018-06-30T19:13:32.577Z,0.87
2018-06-30T19:18:35.593Z,0.70
2018-06-30T19:23:38.606Z,0.70
2018-06-30T19:28:41.618Z,0.90
2018-06-30T19:33:44.637Z,0.70
2018-06-30T19:38:47.697Z,1.00
2018-06-30T19:43:51.101Z,0.80
2018-06-30T19:48:54.081Z,0.70
2018-06-30T19:53:57.083Z,0.70
2018-06-30T19:59:00.097Z,0.80
2018-06-30T20:04:03.217Z,0.80
2018-06-30T20:09:08.058Z,0.90
2018-06-30T20:14:11.069Z,0.70
2018-06-30T20:19:14.229Z,0.80
2018-06-30T20:24:17.278Z,0.90
2018-06-30T20:29:20.396Z,1.00
2018-06-30T20:34:23.404Z,1.30
2018-06-30T20:39:26.461Z,1.30
2018-06-30T20:44:29.450Z,0.80
2018-06-30T20:49:32.558Z,1.10
2018-06-30T20:54:35.625Z,0.70
2018-06-30T20:59:38.630Z,0.97
2018-06-30T21:04:41.670Z,0.90
2018-06-30T21:09:44.745Z,1.00
2018-06-30T21:14:47.769Z,1.00
2018-06-30T21:19:50.892Z,0.97
2018-06-30T21:24:53.985Z,1.73
2018-06-30T21:29:58.620Z,1.30
2018-06-30T21:35:03.641Z,0.80
2018-06-30T21:40:06.746Z,0.80
2018-06-30T21:45:09.836Z,0.83
2018-06-30T21:50:13.041Z,1.10
2018-06-30T21:55:16.117Z,1.20
2018-06-30T22:01:40.154Z,1.23
2018-06-30T22:06:43.584Z,1.50
2018-06-30T22:11:46.596Z,1.30
2018-06-30T22:16:49.609Z,1.53
2018-06-30T22:21:52.685Z,1.70
2018-06-30T22:26:55.786Z,3.63
2018-06-30T22:31:58.793Z,2.13
2018-06-30T22:37:01.837Z,1.00
2018-06-30T22:42:04.941Z,0.90
2018-06-30T22:47:08.207Z,0.80
2018-06-30T22:52:11.177Z,1.23
2018-06-30T22:57:14.179Z,1.30
2018-06-30T23:02:17.185Z,1.30
2018-06-30T23:07:20.202Z,0.90
2018-06-30T23:12:23.244Z,0.90
2018-06-30T23:17:26.246Z,1.00
2018-06-30T23:23:02.489Z,1.30
2018-06-30T23:28:05.625Z,0.90
2018-06-30T23:33:08.645Z,1.10
2018-06-30T23:38:11.649Z,1.00
2018-06-30T23:43:14.657Z,0.80
2018-06-30T23:48:17.676Z,0.93
2018-06-30T23:53:20.669Z,1.03
2018-06-30T23:58:23.645Z,1.03
